sensor_id;sensor_type;location;lat;lon;timestamp;P1;durP1;ratioP1;P2;durP2;ratioP2
50429;SDS011;36359;41.556;-8.418;2022-10-16T00:01:34;3.30;;;2.42;;
50429;SDS011;36359;41.556;-8.418;2022-10-16T00:04:00;2.53;;;1.55;;
50429;SDS011;36359;41.556;-8.418;2022-10-16T00:06:29;3.42;;;1.58;;
50429;SDS011;36359;41.556;-8.418;2022-10-16T00:08:56;2.25;;;1.50;;
50429;SDS011;36359;41.556;-8.418;2022-10-16T00:11:23;2.63;;;1.63;;
50429;SDS011;36359;41.556;-8.418;2022-10-16T00:13:51;2.58;;;1.70;;
50429;SDS011;36359;41.556;-8.418;2022-10-16T00:16:20;2.60;;;1.63;;
50429;SDS011;36359;41.556;-8.418;2022-10-16T00:18:46;2.35;;;1.40;;
50429;SDS011;36359;41.556;-8.418;2022-10-16T00:21:16;2.33;;;1.50;;
50429;SDS011;36359;41.556;-8.418;2022-10-16T00:23:44;2.28;;;1.65;;
50429;SDS011;36359;41.556;-8.418;2022-10-16T00:26:14;2.80;;;1.98;;
50429;SDS011;36359;41.556;-8.418;2022-10-16T00:28:42;1.85;;;1.20;;
50429;SDS011;36359;41.556;-8.418;2022-10-16T00:31:09;2.90;;;1.60;;
50429;SDS011;36359;41.556;-8.418;2022-10-16T00:33:36;2.97;;;1.88;;
50429;SDS011;36359;41.556;-8.418;2022-10-16T00:36:03;2.13;;;1.08;;
50429;SDS011;36359;41.556;-8.418;2022-10-16T00:38:30;1.92;;;1.42;;
50429;SDS011;36359;41.556;-8.418;2022-10-16T00:40:57;2.72;;;1.10;;
50429;SDS011;36359;41.556;-8.418;2022-10-16T00:49:24;1.85;;;1.05;;
50429;SDS011;36359;41.556;-8.418;2022-10-16T00:51:50;2.20;;;1.25;;
50429;SDS011;36359;41.556;-8.418;2022-10-16T00:54:29;2.05;;;1.20;;
50429;SDS011;36359;41.556;-8.418;2022-10-16T00:56:57;3.30;;;1.40;;
50429;SDS011;36359;41.556;-8.418;2022-10-16T00:59:32;2.10;;;1.30;;
50429;SDS011;36359;41.556;-8.418;2022-10-16T01:02:00;2.33;;;1.38;;
50429;SDS011;36359;41.556;-8.418;2022-10-16T01:04:28;1.67;;;1.10;;
50429;SDS011;36359;41.556;-8.418;2022-10-16T01:15:10;1.65;;;0.80;;
50429;SDS011;36359;41.556;-8.418;2022-10-16T01:17:45;1.77;;;0.93;;
50429;SDS011;36359;41.556;-8.418;2022-10-16T01:23:12;1.60;;;0.90;;
50429;SDS011;36359;41.556;-8.418;2022-10-16T01:28:23;1.52;;;0.70;;
50429;SDS011;36359;41.556;-8.418;2022-10-16T01:30:54;1.60;;;0.88;;
50429;SDS011;36359;41.556;-8.418;2022-10-16T01:33:24;2.42;;;1.27;;
50429;SDS011;36359;41.556;-8.418;2022-10-16T01:36:01;1.40;;;0.52;;
50429;SDS011;36359;41.556;-8.418;2022-10-16T01:38:35;1.55;;;1.02;;
50429;SDS011;36359;41.556;-8.418;2022-10-16T01:41:06;0.95;;;0.50;;
50429;SDS011;36359;41.556;-8.418;2022-10-16T01:43:45;1.85;;;0.70;;
50429;SDS011;36359;41.556;-8.418;2022-10-16T01:46:16;1.65;;;0.82;;
50429;SDS011;36359;41.556;-8.418;2022-10-16T01:48:45;2.00;;;0.77;;
50429;SDS011;36359;41.556;-8.418;2022-10-16T01:51:13;1.25;;;0.77;;
50429;SDS011;36359;41.556;-8.418;2022-10-16T01:53:47;2.42;;;0.65;;
50429;SDS011;36359;41.556;-8.418;2022-10-16T01:56:17;0.80;;;0.40;;
50429;SDS011;36359;41.556;-8.418;2022-10-16T01:58:47;1.70;;;0.82;;
50429;SDS011;36359;41.556;-8.418;2022-10-16T02:01:19;1.80;;;1.02;;
50429;SDS011;36359;41.556;-8.418;2022-10-16T02:03:48;2.17;;;0.80;;
50429;SDS011;36359;41.556;-8.418;2022-10-16T02:06:16;2.65;;;1.02;;
50429;SDS011;36359;41.556;-8.418;2022-10-16T02:08:42;2.15;;;0.93;;
50429;SDS011;36359;41.556;-8.418;2022-10-16T02:11:09;2.53;;;0.57;;
50429;SDS011;36359;41.556;-8.418;2022-10-16T02:13:41;0.88;;;0.40;;
50429;SDS011;36359;41.556;-8.418;2022-10-16T02:16:18;2.58;;;0.70;;
50429;SDS011;36359;41.556;-8.418;2022-10-16T02:18:44;1.77;;;0.85;;
50429;SDS011;36359;41.556;-8.418;2022-10-16T02:21:17;1.55;;;0.77;;
50429;SDS011;36359;41.556;-8.418;2022-10-16T02:27:33;0.70;;;0.43;;
50429;SDS011;36359;41.556;-8.418;2022-10-16T02:32:41;1.55;;;0.90;;
50429;SDS011;36359;41.556;-8.418;2022-10-16T02:35:10;2.38;;;0.60;;
50429;SDS011;36359;41.556;-8.418;2022-10-16T02:37:36;1.30;;;0.75;;
50429;SDS011;36359;41.556;-8.418;2022-10-16T02:40:04;0.95;;;0.35;;
50429;SDS011;36359;41.556;-8.418;2022-10-16T02:42:39;1.58;;;0.50;;
50429;SDS011;36359;41.556;-8.418;2022-10-16T02:45:06;0.65;;;0.20;;
50429;SDS011;36359;41.556;-8.418;2022-10-16T02:47:32;0.70;;;0.30;;
50429;SDS011;36359;41.556;-8.418;2022-10-16T02:49:58;1.38;;;0.70;;
50429;SDS011;36359;41.556;-8.418;2022-10-16T02:52:24;1.40;;;0.60;;
50429;SDS011;36359;41.556;-8.418;2022-10-16T02:54:50;2.28;;;0.93;;
50429;SDS011;36359;41.556;-8.418;2022-10-16T02:57:17;1.75;;;0.70;;
50429;SDS011;36359;41.556;-8.418;2022-10-16T02:59:43;0.98;;;0.50;;
50429;SDS011;36359;41.556;-8.418;2022-10-16T03:02:09;1.92;;;0.85;;
50429;SDS011;36359;41.556;-8.418;2022-10-16T03:04:35;1.90;;;0.60;;
50429;SDS011;36359;41.556;-8.418;2022-10-16T03:07:01;1.13;;;0.50;;
50429;SDS011;36359;41.556;-8.418;2022-10-16T03:09:27;1.55;;;0.80;;
50429;SDS011;36359;41.556;-8.418;2022-10-16T03:11:53;1.23;;;0.47;;
50429;SDS011;36359;41.556;-8.418;2022-10-16T03:14:18;1.42;;;0.70;;
50429;SDS011;36359;41.556;-8.418;2022-10-16T03:16:44;2.00;;;0.60;;
50429;SDS011;36359;41.556;-8.418;2022-10-16T03:19:10;1.92;;;0.50;;
50429;SDS011;36359;41.556;-8.418;2022-10-16T03:21:36;1.65;;;0.73;;
50429;SDS011;36359;41.556;-8.418;2022-10-16T03:24:04;2.15;;;0.77;;
50429;SDS011;36359;41.556;-8.418;2022-10-16T03:26:30;1.35;;;0.40;;
50429;SDS011;36359;41.556;-8.418;2022-10-16T03:28:56;1.52;;;0.70;;
50429;SDS011;36359;41.556;-8.418;2022-10-16T03:31:21;1.42;;;0.40;;
50429;SDS011;36359;41.556;-8.418;2022-10-16T03:33:47;1.88;;;0.50;;
50429;SDS011;36359;41.556;-8.418;2022-10-16T03:36:13;1.13;;;0.45;;
50429;SDS011;36359;41.556;-8.418;2022-10-16T03:38:38;1.05;;;0.40;;
50429;SDS011;36359;41.556;-8.418;2022-10-16T03:41:04;1.02;;;0.40;;
50429;SDS011;36359;41.556;-8.418;2022-10-16T03:43:30;2.63;;;0.60;;
50429;SDS011;36359;41.556;-8.418;2022-10-16T03:45:56;1.25;;;0.50;;
50429;SDS011;36359;41.556;-8.418;2022-10-16T03:48:21;1.50;;;0.47;;
50429;SDS011;36359;41.556;-8.418;2022-10-16T03:50:47;1.17;;;0.50;;
50429;SDS011;36359;41.556;-8.418;2022-10-16T03:53:14;3.95;;;0.65;;
50429;SDS011;36359;41.556;-8.418;2022-10-16T03:55:43;1.52;;;0.52;;
50429;SDS011;36359;41.556;-8.418;2022-10-16T03:58:09;1.45;;;0.73;;
50429;SDS011;36359;41.556;-8.418;2022-10-16T04:00:35;1.23;;;0.70;;
50429;SDS011;36359;41.556;-8.418;2022-10-16T04:03:01;4.10;;;0.80;;
50429;SDS011;36359;41.556;-8.418;2022-10-16T04:05:26;2.63;;;0.60;;
50429;SDS011;36359;41.556;-8.418;2022-10-16T04:07:52;1.60;;;0.50;;
50429;SDS011;36359;41.556;-8.418;2022-10-16T04:10:18;2.88;;;0.60;;
50429;SDS011;36359;41.556;-8.418;2022-10-16T04:12:44;0.82;;;0.60;;
50429;SDS011;36359;41.556;-8.418;2022-10-16T04:15:10;2.35;;;0.60;;
50429;SDS011;36359;41.556;-8.418;2022-10-16T04:17:36;2.33;;;0.85;;
50429;SDS011;36359;41.556;-8.418;2022-10-16T04:20:02;1.17;;;0.65;;
50429;SDS011;36359;41.556;-8.418;2022-10-16T04:22:28;2.67;;;0.90;;
50429;SDS011;36359;41.556;-8.418;2022-10-16T04:24:54;1.50;;;0.60;;
50429;SDS011;36359;41.556;-8.418;2022-10-16T04:27:20;2.00;;;0.98;;
50429;SDS011;36359;41.556;-8.418;2022-10-16T04:29:45;2.17;;;0.80;;
50429;SDS011;36359;41.556;-8.418;2022-10-16T04:32:11;2.28;;;0.80;;
50429;SDS011;36359;41.556;-8.418;2022-10-16T04:34:38;2.10;;;0.70;;
50429;SDS011;36359;41.556;-8.418;2022-10-16T04:37:04;2.33;;;0.70;;
50429;SDS011;36359;41.556;-8.418;2022-10-16T04:39:30;1.38;;;0.50;;
50429;SDS011;36359;41.556;-8.418;2022-10-16T04:41:56;1.38;;;0.73;;
50429;SDS011;36359;41.556;-8.418;2022-10-16T04:44:22;1.50;;;0.55;;
50429;SDS011;36359;41.556;-8.418;2022-10-16T04:46:49;1.70;;;0.82;;
50429;SDS011;36359;41.556;-8.418;2022-10-16T04:49:15;4.18;;;1.02;;
50429;SDS011;36359;41.556;-8.418;2022-10-16T04:51:41;1.35;;;0.82;;
50429;SDS011;36359;41.556;-8.418;2022-10-16T04:54:08;1.65;;;0.60;;
50429;SDS011;36359;41.556;-8.418;2022-10-16T04:56:34;1.35;;;0.88;;
50429;SDS011;36359;41.556;-8.418;2022-10-16T04:59:07;2.75;;;1.00;;
50429;SDS011;36359;41.556;-8.418;2022-10-16T05:01:34;1.20;;;0.60;;
50429;SDS011;36359;41.556;-8.418;2022-10-16T05:03:59;1.90;;;0.70;;
50429;SDS011;36359;41.556;-8.418;2022-10-16T05:06:25;2.80;;;1.02;;
50429;SDS011;36359;41.556;-8.418;2022-10-16T05:08:51;1.63;;;0.63;;
50429;SDS011;36359;41.556;-8.418;2022-10-16T05:11:16;2.70;;;0.90;;
50429;SDS011;36359;41.556;-8.418;2022-10-16T05:13:42;1.73;;;0.60;;
50429;SDS011;36359;41.556;-8.418;2022-10-16T05:16:08;1.70;;;0.80;;
50429;SDS011;36359;41.556;-8.418;2022-10-16T05:18:34;1.95;;;0.60;;
50429;SDS011;36359;41.556;-8.418;2022-10-16T05:20:59;1.90;;;0.70;;
50429;SDS011;36359;41.556;-8.418;2022-10-16T05:23:25;1.10;;;0.70;;
50429;SDS011;36359;41.556;-8.418;2022-10-16T05:25:54;1.80;;;0.60;;
50429;SDS011;36359;41.556;-8.418;2022-10-16T05:28:23;1.40;;;0.88;;
50429;SDS011;36359;41.556;-8.418;2022-10-16T05:30:50;1.00;;;0.60;;
50429;SDS011;36359;41.556;-8.418;2022-10-16T05:33:16;2.28;;;0.60;;
50429;SDS011;36359;41.556;-8.418;2022-10-16T05:35:41;1.60;;;0.57;;
50429;SDS011;36359;41.556;-8.418;2022-10-16T05:38:09;0.75;;;0.32;;
50429;SDS011;36359;41.556;-8.418;2022-10-16T05:40:34;1.00;;;0.60;;
50429;SDS011;36359;41.556;-8.418;2022-10-16T05:43:00;0.80;;;0.40;;
50429;SDS011;36359;41.556;-8.418;2022-10-16T05:45:26;1.42;;;0.47;;
50429;SDS011;36359;41.556;-8.418;2022-10-16T05:47:51;1.17;;;0.40;;
50429;SDS011;36359;41.556;-8.418;2022-10-16T05:50:17;0.70;;;0.50;;
50429;SDS011;36359;41.556;-8.418;2022-10-16T05:52:43;1.55;;;0.40;;
50429;SDS011;36359;41.556;-8.418;2022-10-16T05:55:09;1.40;;;0.80;;
50429;SDS011;36359;41.556;-8.418;2022-10-16T05:57:34;1.20;;;0.50;;
50429;SDS011;36359;41.556;-8.418;2022-10-16T06:00:00;0.93;;;0.40;;
50429;SDS011;36359;41.556;-8.418;2022-10-16T06:02:26;1.27;;;0.43;;
50429;SDS011;36359;41.556;-8.418;2022-10-16T06:04:52;0.80;;;0.55;;
50429;SDS011;36359;41.556;-8.418;2022-10-16T06:07:21;0.47;;;0.30;;
50429;SDS011;36359;41.556;-8.418;2022-10-16T06:09:48;0.40;;;0.30;;
50429;SDS011;36359;41.556;-8.418;2022-10-16T06:12:17;0.40;;;0.30;;
50429;SDS011;36359;41.556;-8.418;2022-10-16T06:14:44;1.23;;;0.50;;
50429;SDS011;36359;41.556;-8.418;2022-10-16T06:17:12;1.55;;;0.60;;
50429;SDS011;36359;41.556;-8.418;2022-10-16T06:19:39;2.00;;;0.32;;
50429;SDS011;36359;41.556;-8.418;2022-10-16T06:22:05;0.68;;;0.30;;
50429;SDS011;36359;41.556;-8.418;2022-10-16T06:24:31;1.02;;;0.38;;
50429;SDS011;36359;41.556;-8.418;2022-10-16T06:26:57;2.22;;;0.60;;
50429;SDS011;36359;41.556;-8.418;2022-10-16T06:29:23;0.57;;;0.20;;
50429;SDS011;36359;41.556;-8.418;2022-10-16T06:31:48;0.73;;;0.32;;
50429;SDS011;36359;41.556;-8.418;2022-10-16T06:34:14;0.82;;;0.40;;
50429;SDS011;36359;41.556;-8.418;2022-10-16T06:36:40;1.25;;;0.40;;
50429;SDS011;36359;41.556;-8.418;2022-10-16T06:39:06;1.63;;;0.38;;
50429;SDS011;36359;41.556;-8.418;2022-10-16T06:41:34;0.80;;;0.50;;
50429;SDS011;36359;41.556;-8.418;2022-10-16T06:44:13;1.27;;;0.50;;
50429;SDS011;36359;41.556;-8.418;2022-10-16T06:46:39;0.93;;;0.30;;
50429;SDS011;36359;41.556;-8.418;2022-10-16T06:49:05;1.52;;;0.32;;
50429;SDS011;36359;41.556;-8.418;2022-10-16T06:51:30;1.25;;;0.43;;
50429;SDS011;36359;41.556;-8.418;2022-10-16T06:53:59;0.98;;;0.40;;
50429;SDS011;36359;41.556;-8.418;2022-10-16T06:56:26;2.40;;;0.63;;
50429;SDS011;36359;41.556;-8.418;2022-10-16T06:58:53;1.77;;;0.40;;
50429;SDS011;36359;41.556;-8.418;2022-10-16T07:01:20;1.33;;;0.40;;
50429;SDS011;36359;41.556;-8.418;2022-10-16T07:03:48;0.50;;;0.20;;
50429;SDS011;36359;41.556;-8.418;2022-10-16T07:06:15;1.85;;;0.28;;
50429;SDS011;36359;41.556;-8.418;2022-10-16T07:08:43;1.55;;;0.30;;
50429;SDS011;36359;41.556;-8.418;2022-10-16T07:11:15;1.50;;;0.30;;
50429;SDS011;36359;41.556;-8.418;2022-10-16T07:13:43;1.13;;;0.28;;
50429;SDS011;36359;41.556;-8.418;2022-10-16T07:16:14;0.90;;;0.30;;
50429;SDS011;36359;41.556;-8.418;2022-10-16T07:18:43;1.38;;;0.30;;
50429;SDS011;36359;41.556;-8.418;2022-10-16T07:21:20;2.85;;;0.22;;
50429;SDS011;36359;41.556;-8.418;2022-10-16T07:23:50;1.17;;;0.20;;
50429;SDS011;36359;41.556;-8.418;2022-10-16T07:26:21;2.05;;;0.30;;
50429;SDS011;36359;41.556;-8.418;2022-10-16T07:28:47;0.43;;;0.22;;
50429;SDS011;36359;41.556;-8.418;2022-10-16T07:31:14;1.10;;;0.28;;
50429;SDS011;36359;41.556;-8.418;2022-10-16T07:33:41;1.52;;;0.60;;
50429;SDS011;36359;41.556;-8.418;2022-10-16T07:36:09;0.50;;;0.30;;
50429;SDS011;36359;41.556;-8.418;2022-10-16T07:38:35;0.50;;;0.13;;
50429;SDS011;36359;41.556;-8.418;2022-10-16T07:41:02;1.30;;;0.10;;
50429;SDS011;36359;41.556;-8.418;2022-10-16T07:43:29;0.70;;;0.20;;
50429;SDS011;36359;41.556;-8.418;2022-10-16T07:45:55;0.77;;;0.20;;
50429;SDS011;36359;41.556;-8.418;2022-10-16T07:48:22;0.30;;;0.20;;
50429;SDS011;36359;41.556;-8.418;2022-10-16T07:50:48;1.75;;;0.35;;
50429;SDS011;36359;41.556;-8.418;2022-10-16T07:53:14;1.50;;;0.32;;
50429;SDS011;36359;41.556;-8.418;2022-10-16T07:55:40;0.88;;;0.35;;
50429;SDS011;36359;41.556;-8.418;2022-10-16T07:58:07;1.38;;;0.40;;
50429;SDS011;36359;41.556;-8.418;2022-10-16T08:00:33;1.70;;;0.30;;
50429;SDS011;36359;41.556;-8.418;2022-10-16T08:02:59;0.88;;;0.32;;
50429;SDS011;36359;41.556;-8.418;2022-10-16T08:05:28;1.85;;;0.22;;
50429;SDS011;36359;41.556;-8.418;2022-10-16T08:07:55;1.42;;;0.20;;
50429;SDS011;36359;41.556;-8.418;2022-10-16T08:10:22;1.13;;;0.20;;
50429;SDS011;36359;41.556;-8.418;2022-10-16T08:12:49;1.75;;;0.32;;
50429;SDS011;36359;41.556;-8.418;2022-10-16T08:15:16;1.40;;;0.30;;
50429;SDS011;36359;41.556;-8.418;2022-10-16T08:17:42;1.52;;;0.28;;
50429;SDS011;36359;41.556;-8.418;2022-10-16T08:20:08;0.63;;;0.20;;
50429;SDS011;36359;41.556;-8.418;2022-10-16T08:22:34;0.75;;;0.25;;
50429;SDS011;36359;41.556;-8.418;2022-10-16T08:25:00;1.48;;;0.50;;
50429;SDS011;36359;41.556;-8.418;2022-10-16T08:27:30;0.63;;;0.25;;
50429;SDS011;36359;41.556;-8.418;2022-10-16T08:29:59;0.40;;;0.20;;
50429;SDS011;36359;41.556;-8.418;2022-10-16T08:32:24;1.58;;;0.20;;
50429;SDS011;36359;41.556;-8.418;2022-10-16T08:34:50;0.80;;;0.20;;
50429;SDS011;36359;41.556;-8.418;2022-10-16T08:37:16;2.75;;;0.30;;
50429;SDS011;36359;41.556;-8.418;2022-10-16T08:39:41;2.88;;;0.30;;
50429;SDS011;36359;41.556;-8.418;2022-10-16T08:47:39;0.28;;;0.20;;
50429;SDS011;36359;41.556;-8.418;2022-10-16T08:50:11;1.00;;;0.30;;
50429;SDS011;36359;41.556;-8.418;2022-10-16T08:52:40;0.50;;;0.13;;
50429;SDS011;36359;41.556;-8.418;2022-10-16T08:58:13;0.85;;;0.30;;
50429;SDS011;36359;41.556;-8.418;2022-10-16T09:00:41;2.13;;;0.30;;
50429;SDS011;36359;41.556;-8.418;2022-10-16T09:03:28;3.65;;;0.30;;
50429;SDS011;36359;41.556;-8.418;2022-10-16T09:16:33;1.45;;;0.32;;
50429;SDS011;36359;41.556;-8.418;2022-10-16T09:21:44;2.65;;;0.30;;
50429;SDS011;36359;41.556;-8.418;2022-10-16T09:24:17;1.38;;;0.30;;
50429;SDS011;36359;41.556;-8.418;2022-10-16T09:26:49;0.73;;;0.30;;
50429;SDS011;36359;41.556;-8.418;2022-10-16T09:29:15;1.73;;;0.35;;
50429;SDS011;36359;41.556;-8.418;2022-10-16T09:31:42;1.17;;;0.52;;
50429;SDS011;36359;41.556;-8.418;2022-10-16T09:37:13;1.35;;;0.22;;
50429;SDS011;36359;41.556;-8.418;2022-10-16T09:39:49;0.70;;;0.30;;
50429;SDS011;36359;41.556;-8.418;2022-10-16T09:42:17;3.80;;;0.40;;
50429;SDS011;36359;41.556;-8.418;2022-10-16T09:44:49;1.00;;;0.30;;
50429;SDS011;36359;41.556;-8.418;2022-10-16T09:47:17;1.08;;;0.30;;
50429;SDS011;36359;41.556;-8.418;2022-10-16T09:49:52;0.80;;;0.30;;
50429;SDS011;36359;41.556;-8.418;2022-10-16T09:52:20;1.38;;;0.30;;
50429;SDS011;36359;41.556;-8.418;2022-10-16T09:54:53;1.08;;;0.40;;
50429;SDS011;36359;41.556;-8.418;2022-10-16T09:57:26;1.45;;;0.45;;
50429;SDS011;36359;41.556;-8.418;2022-10-16T09:59:54;2.15;;;0.47;;
50429;SDS011;36359;41.556;-8.418;2022-10-16T10:02:31;2.38;;;0.30;;
50429;SDS011;36359;41.556;-8.418;2022-10-16T10:05:01;1.57;;;0.40;;
50429;SDS011;36359;41.556;-8.418;2022-10-16T10:07:28;1.40;;;0.55;;
50429;SDS011;36359;41.556;-8.418;2022-10-16T10:10:00;2.65;;;1.13;;
50429;SDS011;36359;41.556;-8.418;2022-10-16T10:12:29;2.15;;;0.40;;
50429;SDS011;36359;41.556;-8.418;2022-10-16T10:14:58;1.25;;;0.40;;
50429;SDS011;36359;41.556;-8.418;2022-10-16T10:17:29;2.53;;;0.70;;
50429;SDS011;36359;41.556;-8.418;2022-10-16T10:20:13;1.52;;;0.40;;
50429;SDS011;36359;41.556;-8.418;2022-10-16T10:22:52;1.33;;;0.60;;
50429;SDS011;36359;41.556;-8.418;2022-10-16T10:43:57;1.92;;;0.57;;
50429;SDS011;36359;41.556;-8.418;2022-10-16T10:46:47;1.55;;;0.60;;
50429;SDS011;36359;41.556;-8.418;2022-10-16T11:05:54;2.30;;;0.82;;
50429;SDS011;36359;41.556;-8.418;2022-10-16T11:08:28;0.93;;;0.45;;
50429;SDS011;36359;41.556;-8.418;2022-10-16T11:11:08;1.75;;;0.50;;
50429;SDS011;36359;41.556;-8.418;2022-10-16T11:13:52;1.35;;;0.60;;
50429;SDS011;36359;41.556;-8.418;2022-10-16T11:16:26;0.77;;;0.22;;
50429;SDS011;36359;41.556;-8.418;2022-10-16T11:21:53;1.65;;;0.57;;
50429;SDS011;36359;41.556;-8.418;2022-10-16T11:24:35;2.08;;;0.57;;
50429;SDS011;36359;41.556;-8.418;2022-10-16T11:27:09;1.67;;;0.60;;
50429;SDS011;36359;41.556;-8.418;2022-10-16T11:29:44;0.90;;;0.25;;
50429;SDS011;36359;41.556;-8.418;2022-10-16T11:32:32;1.50;;;0.50;;
50429;SDS011;36359;41.556;-8.418;2022-10-16T11:35:17;0.77;;;0.35;;
50429;SDS011;36359;41.556;-8.418;2022-10-16T11:37:48;2.60;;;0.57;;
50429;SDS011;36359;41.556;-8.418;2022-10-16T11:40:20;2.13;;;0.45;;
50429;SDS011;36359;41.556;-8.418;2022-10-16T11:42:49;3.03;;;0.55;;
50429;SDS011;36359;41.556;-8.418;2022-10-16T11:45:34;1.55;;;0.50;;
50429;SDS011;36359;41.556;-8.418;2022-10-16T11:50:43;4.90;;;0.60;;
50429;SDS011;36359;41.556;-8.418;2022-10-16T11:53:31;2.63;;;0.60;;
50429;SDS011;36359;41.556;-8.418;2022-10-16T11:56:19;1.13;;;0.35;;
50429;SDS011;36359;41.556;-8.418;2022-10-16T11:58:52;2.40;;;0.47;;
50429;SDS011;36359;41.556;-8.418;2022-10-16T12:09:08;0.70;;;0.40;;
50429;SDS011;36359;41.556;-8.418;2022-10-16T12:11:51;2.55;;;0.63;;
50429;SDS011;36359;41.556;-8.418;2022-10-16T12:14:21;8.93;;;5.90;;
50429;SDS011;36359;41.556;-8.418;2022-10-16T12:19:56;5.78;;;3.67;;
50429;SDS011;36359;41.556;-8.418;2022-10-16T12:22:53;1.52;;;1.05;;
50429;SDS011;36359;41.556;-8.418;2022-10-16T12:27:57;1.75;;;1.10;;
50429;SDS011;36359;41.556;-8.418;2022-10-16T12:30:43;1.73;;;0.80;;
50429;SDS011;36359;41.556;-8.418;2022-10-16T12:33:19;1.08;;;0.75;;
50429;SDS011;36359;41.556;-8.418;2022-10-16T12:35:49;2.38;;;1.05;;
50429;SDS011;36359;41.556;-8.418;2022-10-16T12:38:19;1.08;;;0.82;;
50429;SDS011;36359;41.556;-8.418;2022-10-16T12:41:03;1.50;;;0.50;;
50429;SDS011;36359;41.556;-8.418;2022-10-16T12:48:36;1.80;;;0.70;;
50429;SDS011;36359;41.556;-8.418;2022-10-16T12:51:22;2.72;;;1.05;;
50429;SDS011;36359;41.556;-8.418;2022-10-16T12:59:12;2.50;;;0.57;;
50429;SDS011;36359;41.556;-8.418;2022-10-16T13:04:22;2.22;;;0.70;;
50429;SDS011;36359;41.556;-8.418;2022-10-16T13:18:19;1.80;;;0.65;;
50429;SDS011;36359;41.556;-8.418;2022-10-16T13:29:20;0.73;;;0.40;;
50429;SDS011;36359;41.556;-8.418;2022-10-16T13:31:47;1.45;;;0.60;;
50429;SDS011;36359;41.556;-8.418;2022-10-16T13:34:14;1.52;;;0.73;;
50429;SDS011;36359;41.556;-8.418;2022-10-16T13:36:50;0.93;;;0.43;;
50429;SDS011;36359;41.556;-8.418;2022-10-16T13:39:24;1.10;;;0.57;;
50429;SDS011;36359;41.556;-8.418;2022-10-16T13:42:00;2.92;;;0.85;;
50429;SDS011;36359;41.556;-8.418;2022-10-16T13:44:35;1.10;;;0.65;;
50429;SDS011;36359;41.556;-8.418;2022-10-16T13:47:10;1.08;;;0.50;;
50429;SDS011;36359;41.556;-8.418;2022-10-16T13:49:45;1.13;;;0.52;;
50429;SDS011;36359;41.556;-8.418;2022-10-16T13:52:20;0.85;;;0.30;;
50429;SDS011;36359;41.556;-8.418;2022-10-16T13:54:47;1.52;;;0.50;;
50429;SDS011;36359;41.556;-8.418;2022-10-16T13:57:16;1.10;;;0.70;;
50429;SDS011;36359;41.556;-8.418;2022-10-16T13:59:42;4.00;;;1.35;;
50429;SDS011;36359;41.556;-8.418;2022-10-16T14:04:54;1.20;;;0.50;;
50429;SDS011;36359;41.556;-8.418;2022-10-16T14:07:23;2.08;;;0.60;;
50429;SDS011;36359;41.556;-8.418;2022-10-16T14:09:51;1.92;;;0.57;;
50429;SDS011;36359;41.556;-8.418;2022-10-16T14:12:18;2.65;;;0.80;;
50429;SDS011;36359;41.556;-8.418;2022-10-16T14:14:48;1.40;;;0.70;;
50429;SDS011;36359;41.556;-8.418;2022-10-16T14:17:22;3.25;;;0.65;;
50429;SDS011;36359;41.556;-8.418;2022-10-16T14:19:50;2.70;;;0.70;;
50429;SDS011;36359;41.556;-8.418;2022-10-16T14:22:38;2.80;;;0.82;;
50429;SDS011;36359;41.556;-8.418;2022-10-16T14:25:24;1.38;;;0.70;;
50429;SDS011;36359;41.556;-8.418;2022-10-16T14:30:49;1.25;;;0.50;;
50429;SDS011;36359;41.556;-8.418;2022-10-16T14:33:38;3.30;;;0.82;;
50429;SDS011;36359;41.556;-8.418;2022-10-16T14:38:35;1.63;;;1.02;;
50429;SDS011;36359;41.556;-8.418;2022-10-16T14:41:05;3.67;;;1.08;;
50429;SDS011;36359;41.556;-8.418;2022-10-16T14:43:32;2.55;;;0.68;;
50429;SDS011;36359;41.556;-8.418;2022-10-16T14:46:03;2.42;;;1.35;;
50429;SDS011;36359;41.556;-8.418;2022-10-16T14:48:35;3.05;;;1.35;;
50429;SDS011;36359;41.556;-8.418;2022-10-16T14:51:01;3.38;;;1.08;;
50429;SDS011;36359;41.556;-8.418;2022-10-16T14:53:26;1.98;;;1.17;;
50429;SDS011;36359;41.556;-8.418;2022-10-16T14:55:52;3.08;;;1.30;;
50429;SDS011;36359;41.556;-8.418;2022-10-16T14:58:19;3.03;;;1.17;;
50429;SDS011;36359;41.556;-8.418;2022-10-16T15:00:48;3.50;;;1.27;;
50429;SDS011;36359;41.556;-8.418;2022-10-16T15:03:14;4.43;;;2.10;;
50429;SDS011;36359;41.556;-8.418;2022-10-16T15:05:40;5.85;;;2.17;;
50429;SDS011;36359;41.556;-8.418;2022-10-16T15:08:06;3.00;;;2.00;;
50429;SDS011;36359;41.556;-8.418;2022-10-16T15:10:33;4.63;;;2.35;;
50429;SDS011;36359;41.556;-8.418;2022-10-16T15:13:04;5.70;;;1.65;;
50429;SDS011;36359;41.556;-8.418;2022-10-16T15:15:41;4.28;;;1.55;;
50429;SDS011;36359;41.556;-8.418;2022-10-16T15:18:11;4.63;;;2.00;;
50429;SDS011;36359;41.556;-8.418;2022-10-16T15:20:39;5.78;;;1.95;;
50429;SDS011;36359;41.556;-8.418;2022-10-16T15:23:10;4.93;;;1.17;;
50429;SDS011;36359;41.556;-8.418;2022-10-16T15:25:45;3.15;;;1.58;;
50429;SDS011;36359;41.556;-8.418;2022-10-16T15:28:13;3.22;;;1.65;;
50429;SDS011;36359;41.556;-8.418;2022-10-16T15:30:41;5.03;;;1.88;;
50429;SDS011;36359;41.556;-8.418;2022-10-16T15:33:20;6.78;;;1.92;;
50429;SDS011;36359;41.556;-8.418;2022-10-16T15:35:51;6.63;;;2.22;;
50429;SDS011;36359;41.556;-8.418;2022-10-16T15:38:18;5.63;;;1.50;;
50429;SDS011;36359;41.556;-8.418;2022-10-16T15:40:46;4.43;;;2.10;;
50429;SDS011;36359;41.556;-8.418;2022-10-16T15:43:13;4.63;;;1.75;;
50429;SDS011;36359;41.556;-8.418;2022-10-16T15:45:39;7.70;;;2.05;;
50429;SDS011;36359;41.556;-8.418;2022-10-16T15:48:04;3.00;;;1.30;;
50429;SDS011;36359;41.556;-8.418;2022-10-16T15:50:30;2.10;;;1.30;;
50429;SDS011;36359;41.556;-8.418;2022-10-16T15:52:57;3.42;;;1.27;;
50429;SDS011;36359;41.556;-8.418;2022-10-16T15:55:23;2.42;;;1.17;;
50429;SDS011;36359;41.556;-8.418;2022-10-16T15:57:49;5.38;;;1.80;;
50429;SDS011;36359;41.556;-8.418;2022-10-16T16:00:16;4.03;;;1.60;;
50429;SDS011;36359;41.556;-8.418;2022-10-16T16:02:50;2.88;;;1.17;;
50429;SDS011;36359;41.556;-8.418;2022-10-16T16:05:18;7.55;;;2.08;;
50429;SDS011;36359;41.556;-8.418;2022-10-16T16:07:44;4.68;;;1.48;;
50429;SDS011;36359;41.556;-8.418;2022-10-16T16:10:10;6.55;;;1.90;;
50429;SDS011;36359;41.556;-8.418;2022-10-16T16:12:36;3.08;;;1.00;;
50429;SDS011;36359;41.556;-8.418;2022-10-16T16:15:03;2.25;;;1.30;;
50429;SDS011;36359;41.556;-8.418;2022-10-16T16:17:30;4.63;;;1.60;;
50429;SDS011;36359;41.556;-8.418;2022-10-16T16:19:57;4.40;;;1.88;;
50429;SDS011;36359;41.556;-8.418;2022-10-16T16:22:23;5.90;;;2.03;;
50429;SDS011;36359;41.556;-8.418;2022-10-16T16:24:49;4.18;;;2.00;;
50429;SDS011;36359;41.556;-8.418;2022-10-16T16:27:15;4.75;;;1.70;;
50429;SDS011;36359;41.556;-8.418;2022-10-16T16:29:40;2.85;;;1.48;;
50429;SDS011;36359;41.556;-8.418;2022-10-16T16:32:06;4.22;;;2.33;;
50429;SDS011;36359;41.556;-8.418;2022-10-16T16:34:32;7.05;;;2.25;;
50429;SDS011;36359;41.556;-8.418;2022-10-16T16:36:58;3.72;;;1.70;;
50429;SDS011;36359;41.556;-8.418;2022-10-16T16:39:24;4.53;;;1.92;;
50429;SDS011;36359;41.556;-8.418;2022-10-16T16:41:50;3.92;;;1.80;;
50429;SDS011;36359;41.556;-8.418;2022-10-16T16:44:16;7.70;;;2.30;;
50429;SDS011;36359;41.556;-8.418;2022-10-16T16:46:43;5.65;;;2.30;;
50429;SDS011;36359;41.556;-8.418;2022-10-16T16:49:10;8.60;;;2.70;;
50429;SDS011;36359;41.556;-8.418;2022-10-16T16:51:37;4.35;;;2.00;;
50429;SDS011;36359;41.556;-8.418;2022-10-16T16:54:03;8.13;;;2.58;;
50429;SDS011;36359;41.556;-8.418;2022-10-16T16:56:29;7.00;;;1.98;;
50429;SDS011;36359;41.556;-8.418;2022-10-16T16:58:55;7.43;;;2.22;;
50429;SDS011;36359;41.556;-8.418;2022-10-16T17:01:23;3.95;;;1.70;;
50429;SDS011;36359;41.556;-8.418;2022-10-16T17:03:52;7.22;;;2.30;;
50429;SDS011;36359;41.556;-8.418;2022-10-16T17:06:20;9.38;;;2.33;;
50429;SDS011;36359;41.556;-8.418;2022-10-16T17:08:48;8.95;;;2.65;;
50429;SDS011;36359;41.556;-8.418;2022-10-16T17:11:16;3.05;;;1.50;;